createdAt,value
2022-09-28T00:04:16.697Z,3.4
2022-09-28T00:09:16.173Z,1.7
2022-09-28T00:14:15.603Z,1.5
2022-09-28T00:19:15.311Z,2.3
2022-09-28T00:24:14.501Z,1.8
2022-09-28T00:29:14.108Z,1.5
2022-09-28T00:34:13.452Z,1.4
2022-09-28T00:39:12.899Z,1.5
2022-09-28T00:44:12.305Z,1.5
2022-09-28T00:49:11.788Z,1
2022-09-28T00:54:11.264Z,1.3
2022-09-28T00:59:10.767Z,1.8
2022-09-28T01:04:10.208Z,2
2022-09-28T01:09:09.705Z,1.9
2022-09-28T01:14:09.109Z,1.6
2022-09-28T01:19:08.582Z,1.4
2022-09-28T01:24:08.034Z,1.6
2022-09-28T01:29:07.426Z,1
2022-09-28T01:34:06.931Z,1.4
2022-09-28T01:39:06.336Z,1.2
2022-09-28T01:44:05.838Z,1.1
2022-09-28T01:49:05.291Z,1.4
2022-09-28T01:54:04.794Z,2.6
2022-09-28T01:59:04.216Z,2.6
2022-09-28T02:04:03.691Z,1.2
2022-09-28T02:09:03.156Z,1.1
2022-09-28T02:14:02.629Z,1.1
2022-09-28T02:19:02.050Z,1.3
2022-09-28T02:24:01.559Z,1
2022-09-28T02:29:00.991Z,1.7
2022-09-28T02:34:00.499Z,1.3
2022-09-28T02:38:59.947Z,9.5
2022-09-28T02:43:59.464Z,9.1
2022-09-28T02:49:19.862Z,2.6
2022-09-28T02:53:58.393Z,0.9
2022-09-28T02:58:57.839Z,1.5
2022-09-28T03:03:57.302Z,0.9
2022-09-28T03:08:56.711Z,6.9
2022-09-28T03:13:57.206Z,1.6
2022-09-28T03:18:55.617Z,1.8
2022-09-28T03:23:55.049Z,1.9
2022-09-28T03:28:54.436Z,5.6
2022-09-28T03:33:53.967Z,6
2022-09-28T03:38:53.323Z,5.2
2022-09-28T03:43:52.751Z,3.2
2022-09-28T03:48:52.154Z,5.3
2022-09-28T03:53:51.615Z,2.8
2022-09-28T03:58:50.975Z,1.8
2022-09-28T04:03:50.410Z,2.3
2022-09-28T04:08:49.828Z,1.6
2022-09-28T04:13:49.267Z,2
2022-09-28T04:18:48.637Z,2.5
2022-09-28T04:23:48.085Z,1.9
2022-09-28T04:28:47.490Z,2.7
2022-09-28T04:33:46.948Z,1.8
2022-09-28T04:38:53.198Z,1.7
2022-09-28T04:43:45.710Z,2.2
2022-09-28T04:48:45.110Z,1.5
2022-09-28T04:53:44.500Z,1.6
2022-09-28T04:58:43.885Z,1.5
2022-09-28T05:03:43.340Z,1.9
2022-09-28T05:08:42.708Z,2
2022-09-28T05:13:42.127Z,1.6
2022-09-28T05:18:41.507Z,2.2
2022-09-28T05:23:40.963Z,2.2
2022-09-28T05:28:40.357Z,1.7
2022-09-28T05:33:39.739Z,2.2
2022-09-28T05:38:39.157Z,2.2
2022-09-28T05:43:38.631Z,1.7
2022-09-28T05:48:38.014Z,2.6
2022-09-28T05:53:37.455Z,6
2022-09-28T05:58:36.813Z,39.1
2022-09-28T06:03:36.258Z,27.9
2022-09-28T06:08:35.653Z,8
2022-09-28T06:13:35.156Z,4.8
2022-09-28T06:18:34.525Z,2.8
2022-09-28T06:23:33.959Z,4.1
2022-09-28T06:28:33.361Z,2.6
2022-09-28T06:33:32.808Z,4.4
2022-09-28T06:38:32.183Z,3
2022-09-28T06:43:34.391Z,6.4
2022-09-28T06:48:31.057Z,7.6
2022-09-28T06:53:30.524Z,2.3
2022-09-28T06:58:29.922Z,5.5
2022-09-28T07:03:29.371Z,3.4
2022-09-28T07:08:28.804Z,2.5
2022-09-28T07:18:27.721Z,2.8
2022-09-28T07:23:27.170Z,1.8
2022-09-28T07:28:26.549Z,1.9
2022-09-28T07:33:28.045Z,1.2
2022-09-28T07:38:25.456Z,3.3
2022-09-28T07:43:24.949Z,2.2
2022-09-28T07:48:24.375Z,1.5
2022-09-28T07:53:23.808Z,2
2022-09-28T07:58:23.272Z,1.2
2022-09-28T08:03:22.703Z,0.5
2022-09-28T08:08:22.117Z,0.6
2022-09-28T08:13:23.522Z,1
2022-09-28T08:18:21.084Z,1.1
2022-09-28T08:23:20.561Z,0.8
2022-09-28T08:28:20.030Z,0.7
2022-09-28T08:33:19.486Z,0.5
2022-09-28T08:38:18.932Z,0.3
2022-09-28T08:43:18.487Z,0.6
2022-09-28T08:48:17.948Z,0.5
2022-09-28T08:53:17.508Z,0.9
2022-09-28T08:58:17.026Z,0.5
2022-09-28T09:03:16.546Z,0.7
2022-09-28T09:08:16.006Z,0.4
2022-09-28T09:13:15.528Z,0.6
2022-09-28T09:18:16.690Z,0.4
2022-09-28T09:23:14.523Z,0.4
2022-09-28T09:28:14.012Z,0.5
2022-09-28T09:33:13.558Z,0.3
2022-09-28T09:38:13.048Z,0.4
2022-09-28T09:43:12.611Z,0.2
2022-09-28T09:48:12.071Z,0.4
2022-09-28T09:53:11.648Z,0.6
2022-09-28T09:58:11.206Z,0.4
2022-09-28T10:03:10.762Z,0.3
2022-09-28T10:08:10.267Z,0.4
2022-09-28T10:13:09.871Z,0.3
2022-09-28T10:18:09.393Z,0.4
2022-09-28T10:23:08.974Z,0.3
2022-09-28T10:28:08.527Z,0.4
2022-09-28T10:33:08.104Z,2.4
2022-09-28T10:38:07.731Z,0.5
2022-09-28T10:43:07.214Z,0.3
2022-09-28T10:48:06.785Z,0.2
2022-09-28T10:53:06.406Z,0.6
2022-09-28T10:58:05.941Z,0.6
2022-09-28T11:03:05.577Z,0.3
2022-09-28T11:08:05.136Z,0.4
2022-09-28T11:13:04.751Z,0.3
2022-09-28T11:18:04.377Z,0.2
2022-09-28T11:23:03.960Z,0.6
2022-09-28T11:28:03.590Z,0.3
2022-09-28T11:33:03.252Z,0.6
2022-09-28T11:38:02.806Z,0.6
2022-09-28T11:43:02.658Z,0.7
2022-09-28T11:48:02.093Z,0.5
2022-09-28T11:53:01.739Z,0.4
2022-09-28T11:58:01.326Z,0.5
2022-09-28T12:03:01.197Z,0.5
2022-09-28T12:08:00.644Z,0.9
2022-09-28T12:13:00.273Z,0.3
2022-09-28T12:17:59.946Z,0.5
2022-09-28T12:22:59.561Z,0.4
2022-09-28T12:27:59.163Z,0.4
2022-09-28T12:32:58.880Z,0.2
2022-09-28T12:37:58.450Z,0.3
2022-09-28T12:42:58.117Z,0.5
2022-09-28T12:47:57.775Z,0.3
2022-09-28T12:53:00.675Z,6.1
2022-09-28T12:57:57.078Z,0.4
2022-09-28T13:02:56.854Z,0.3
2022-09-28T13:07:56.349Z,0.4
2022-09-28T13:12:56.030Z,0.6
2022-09-28T13:17:55.750Z,0.3
2022-09-28T13:22:55.258Z,0.5
2022-09-28T13:27:54.909Z,0.3
2022-09-28T13:32:54.576Z,0.4
2022-09-28T13:37:54.206Z,0.3
2022-09-28T13:42:53.854Z,0.5
2022-09-28T13:47:53.478Z,2.6
2022-09-28T13:52:53.145Z,0.7
2022-09-28T13:57:52.782Z,0.4
2022-09-28T14:02:52.482Z,1.2
2022-09-28T14:07:54.062Z,0.5
2022-09-28T14:12:51.691Z,0.7
2022-09-28T14:17:51.281Z,0.8
2022-09-28T14:22:50.941Z,0.4
2022-09-28T14:27:50.497Z,0.7
2022-09-28T14:32:50.172Z,0.6
2022-09-28T14:37:49.776Z,0.6
2022-09-28T14:42:49.381Z,0.7
2022-09-28T14:47:49.002Z,0.6
2022-09-28T14:52:48.687Z,1.2
2022-09-28T14:57:48.303Z,0.9
2022-09-28T15:02:47.968Z,2.2
2022-09-28T15:07:47.607Z,0.8
2022-09-28T15:12:47.261Z,0.9
2022-09-28T15:17:46.833Z,1.1
2022-09-28T15:22:46.487Z,1.6
2022-09-28T15:27:46.069Z,0.9
2022-09-28T15:32:45.721Z,1.1
2022-09-28T15:37:45.298Z,0.9
2022-09-28T15:42:44.933Z,1.5
2022-09-28T15:47:44.566Z,1.3
2022-09-28T15:52:44.178Z,1.3
2022-09-28T15:57:43.775Z,1.4
2022-09-28T16:02:43.439Z,1.8
2022-09-28T16:07:42.976Z,1.2
2022-09-28T16:12:42.629Z,1.5
2022-09-28T16:17:42.280Z,1.3
2022-09-28T16:22:41.872Z,1.2
2022-09-28T16:27:41.440Z,1.9
2022-09-28T16:32:41.086Z,1.9
2022-09-28T16:37:40.706Z,1.2
2022-09-28T16:42:40.257Z,1.7
2022-09-28T16:47:39.907Z,1.8
2022-09-28T16:52:39.538Z,2.7
2022-09-28T16:57:39.128Z,2.5
2022-09-28T17:02:46.951Z,4.7
2022-09-28T17:07:38.415Z,4.1
2022-09-28T17:12:37.984Z,3.5
2022-09-28T17:17:37.619Z,3.2
2022-09-28T17:22:37.256Z,5.2
2022-09-28T17:27:36.837Z,4.4
2022-09-28T17:32:36.481Z,6.7
2022-09-28T17:37:36.058Z,8
2022-09-28T17:42:35.691Z,8
2022-09-28T17:47:35.272Z,6.3
2022-09-28T17:52:34.948Z,3.4
2022-09-28T17:57:34.500Z,3.8
2022-09-28T18:02:34.235Z,4.4
2022-09-28T18:07:33.758Z,3.4
